Time;durP1;ratioP1;P1;durP2;ratioP2;P2;SDS_P1;SDS_P2;PMS_P1;PMS_P2;Temp;Humidity;BMP_temperature;BMP_pressure;BME280_temperature;BME280_humidity;BME280_pressure;Samples;Min_cycle;Max_cycle;Signal;HPM_P1;HPM_P2
2022/08/22 00:01:18;;;;;;;;;;;;;;;17.21;70.19;101564.59;5031100;28;19913;-57
2022/08/22 00:03:49;;;;;;;;;;;;;;;17.22;69.67;101566.25;5027673;28;20035;-58
2022/08/22 00:06:18;;;;;;;;;;;;;;;17.21;69.69;101561.91;5033613;28;19956;-58
2022/08/22 00:08:57;;;;;;;;;;;;;;;17.21;69.92;101566.44;5023324;28;19916;-58
2022/08/22 00:11:35;;;;;;;;;;;;;;;17.20;70.16;101564.78;5027998;28;19948;-58
2022/08/22 00:14:13;;;;;;;;;;;;;;;17.21;69.94;101566.44;5023614;28;19920;-57
2022/08/22 00:16:45;;;;;;;;;;;;;;;17.22;70.22;101570.78;5028601;28;19917;-58
2022/08/22 00:19:23;;;;;;;;;;;;;;;17.23;70.44;101567.06;5031870;28;20396;-57
2022/08/22 00:21:48;;;;;;;;;;;;;;;17.22;70.95;101576.16;5031937;28;19919;-58
2022/08/22 00:24:32;;;;;;;;;;;;;;;17.18;71.13;101583.78;5035111;28;20285;-58
2022/08/22 00:27:03;;;;;;;;;;;;;;;17.16;71.35;101572.41;5037591;28;19913;-57
2022/08/22 00:29:33;;;;;;;;;;;;;;;17.14;71.82;101570.94;5028548;28;19966;-58
2022/08/22 00:32:05;;;;;;;;;;;;;;;17.10;71.95;101575.06;5034456;28;20315;-56
2022/08/22 00:34:36;;;;;;;;;;;;;;;17.06;72.00;101571.06;5030683;28;19917;-58
2022/08/22 00:37:05;;;;;;;;;;;;;;;17.02;72.16;101576.81;5031073;28;19921;-58
2022/08/22 00:40:00;;;;;;;;;;;;;;;17.01;72.38;101577.84;5030437;28;19925;-58
2022/08/22 00:42:46;;;;;;;;;;;;;;;17.01;72.15;101568.97;4990934;28;19949;-58
2022/08/22 00:45:28;;;;;;;;;;;;;;;17.00;72.18;101568.16;5030187;28;20438;-58
2022/08/22 00:47:56;;;;;;;;;;;;;;;17.00;72.19;101570.81;5029947;28;20652;-57
2022/08/22 00:50:38;;;;;;;;;;;;;;;17.01;71.98;101571.66;5029433;28;19913;-57
2022/08/22 00:53:24;;;;;;;;;;;;;;;17.02;72.03;101571.47;5029309;28;19916;-58
2022/08/22 00:55:56;;;;;;;;;;;;;;;17.06;72.32;101573.75;5032488;28;19920;-57
2022/08/22 00:58:21;;;;;;;;;;;;;;;17.10;72.35;101577.72;5030410;28;19909;-57
2022/08/22 01:00:52;;;;;;;;;;;;;;;17.12;72.54;101578.38;5036525;28;19912;-57
2022/08/22 01:03:33;;;;;;;;;;;;;;;17.15;72.42;101580.66;5038780;28;20024;-58
2022/08/22 01:06:09;;;;;;;;;;;;;;;17.17;72.72;101573.22;5037643;28;19919;-58
2022/08/22 01:08:50;;;;;;;;;;;;;;;17.20;72.74;101570.16;5027979;28;19913;-58
2022/08/22 01:11:15;;;;;;;;;;;;;;;17.24;72.68;101576.78;5036815;28;20292;-57
2022/08/22 01:13:58;;;;;;;;;;;;;;;17.25;72.87;101568.53;5034468;28;19909;-58
2022/08/22 01:16:23;;;;;;;;;;;;;;;17.27;72.92;101573.69;5027529;28;20373;-57
2022/08/22 01:19:03;;;;;;;;;;;;;;;17.28;73.22;101570.00;5037738;28;19928;-58
2022/08/22 01:21:43;;;;;;;;;;;;;;;17.28;73.21;101565.44;5031967;28;20013;-57
2022/08/22 01:24:23;;;;;;;;;;;;;;;17.30;72.98;101567.94;5026077;28;19913;-58
2022/08/22 01:27:04;;;;;;;;;;;;;;;17.30;73.19;101565.25;5033535;28;19916;-57
2022/08/22 01:29:59;;;;;;;;;;;;;;;17.32;73.16;101565.88;5028363;28;19916;-57
2022/08/22 01:32:30;;;;;;;;;;;;;;;17.34;73.87;101556.59;5031427;28;20381;-57
2022/08/22 01:35:14;;;;;;;;;;;;;;;17.35;73.61;101565.53;5025632;28;19988;-58
2022/08/22 01:37:54;;;;;;;;;;;;;;;17.36;73.73;101561.81;5036132;28;20354;-57
2022/08/22 01:40:38;;;;;;;;;;;;;;;17.37;73.82;101563.47;5034234;28;20265;-57
2022/08/22 01:43:03;;;;;;;;;;;;;;;17.38;73.92;101569.66;5022761;28;20455;-58
2022/08/22 01:45:49;;;;;;;;;;;;;;;17.34;74.06;101559.28;5028633;28;20427;-58
2022/08/22 01:48:24;;;;;;;;;;;;;;;17.35;73.86;101557.47;5032796;28;19916;-58
2022/08/22 01:50:53;;;;;;;;;;;;;;;17.35;74.24;101565.53;5030175;28;19909;-57
2022/08/22 01:53:30;;;;;;;;;;;;;;;17.32;74.44;101561.34;5031873;28;19917;-57
2022/08/22 01:56:13;;;;;;;;;;;;;;;17.33;74.14;101562.16;5029080;28;19909;-58
2022/08/22 01:58:58;;;;;;;;;;;;;;;17.34;74.19;101553.09;5028484;28;19921;-57
2022/08/22 02:01:27;;;;;;;;;;;;;;;17.38;74.36;101558.91;5025411;28;19932;-57
2022/08/22 02:04:08;;;;;;;;;;;;;;;17.39;74.44;101560.56;5028364;28;20380;-58
2022/08/22 02:06:39;;;;;;;;;;;;;;;17.40;74.31;101556.88;5027716;28;19936;-58
2022/08/22 02:09:22;;;;;;;;;;;;;;;17.40;74.22;101559.56;5043086;28;19916;-58
2022/08/22 02:11:47;;;;;;;;;;;;;;;17.40;74.24;101562.22;5031509;28;20372;-57
2022/08/22 02:14:31;;;;;;;;;;;;;;;17.39;73.77;101558.72;5037190;28;19924;-58
2022/08/22 02:17:07;;;;;;;;;;;;;;;17.39;73.72;101566.78;5034619;28;19919;-58
2022/08/22 02:19:53;;;;;;;;;;;;;;;17.40;73.88;101560.38;5038248;28;19920;-58
2022/08/22 02:22:24;;;;;;;;;;;;;;;17.40;73.80;101562.22;5021214;28;19920;-57
2022/08/22 02:24:52;;;;;;;;;;;;;;;17.41;73.92;101567.41;5030888;28;19978;-58
2022/08/22 02:27:33;;;;;;;;;;;;;;;17.39;73.57;101558.72;5039101;28;19966;-58
2022/08/22 02:30:02;;;;;;;;;;;;;;;17.36;73.98;101555.59;5029452;28;20415;-58
2022/08/22 02:32:27;;;;;;;;;;;;;;;17.35;73.71;101560.16;5025614;28;20344;-58
2022/08/22 02:35:02;;;;;;;;;;;;;;;17.34;73.41;101558.47;5037213;28;20392;-58
2022/08/22 02:37:53;;;;;;;;;;;;;;;17.34;73.62;101550.41;5035406;28;20008;-58
2022/08/22 02:40:26;;;;;;;;;;;;;;;17.33;73.52;101546.06;5034740;28;19928;-57
2022/08/22 02:42:58;;;;;;;;;;;;;;;17.34;73.22;101550.41;5026554;28;19913;-57
2022/08/22 02:45:43;;;;;;;;;;;;;;;17.34;72.97;101547.72;5031562;28;19955;-58
2022/08/22 02:48:18;;;;;;;;;;;;;;;17.33;73.11;101548.75;5022577;28;19924;-57
2022/08/22 02:50:51;;;;;;;;;;;;;;;17.29;73.19;101544.81;5034422;28;19913;-58
2022/08/22 02:53:21;;;;;;;;;;;;;;;17.25;73.45;101549.75;5021926;28;19921;-58
2022/08/22 02:55:47;;;;;;;;;;;;;;;17.23;73.34;101548.28;5029870;28;19956;-58
2022/08/22 02:58:31;;;;;;;;;;;;;;;17.18;73.93;101546.19;5039781;28;19948;-58
2022/08/22 03:00:56;;;;;;;;;;;;;;;17.10;74.22;101548.22;5024798;28;19920;-58
2022/08/22 03:03:24;;;;;;;;;;;;;;;17.04;73.94;101547.94;5025356;28;19909;-58
2022/08/22 03:06:00;;;;;;;;;;;;;;;16.98;74.22;101539.84;5040810;28;19913;-57
2022/08/22 03:08:37;;;;;;;;;;;;;;;16.94;73.91;101547.47;5033661;28;19913;-58
2022/08/22 03:11:02;;;;;;;;;;;;;;;16.94;73.93;101541.28;5034732;28;19932;-58
2022/08/22 03:13:46;;;;;;;;;;;;;;;16.94;74.05;101550.16;5033021;28;20370;-57
2022/08/22 03:16:25;;;;;;;;;;;;;;;16.94;74.34;101549.31;5032348;28;19916;-58
2022/08/22 03:19:07;;;;;;;;;;;;;;;16.89;74.74;101544.53;5027456;28;20363;-58
2022/08/22 03:21:42;;;;;;;;;;;;;;;16.84;75.10;101544.31;5036052;28;19912;-57
2022/08/22 03:24:13;;;;;;;;;;;;;;;16.80;75.08;101542.22;5031312;28;19917;-58
2022/08/22 03:26:47;;;;;;;;;;;;;;;16.77;75.13;101532.69;5036487;28;19932;-57
2022/08/22 03:29:17;;;;;;;;;;;;;;;16.78;74.50;101530.84;5035732;28;19924;-58
2022/08/22 03:32:01;;;;;;;;;;;;;;;16.78;74.59;101533.53;5043689;28;19908;-57
2022/08/22 03:34:27;;;;;;;;;;;;;;;16.78;74.84;101523.63;5031039;28;19914;-57
2022/08/22 03:37:04;;;;;;;;;;;;;;;16.78;74.90;101520.94;5041506;28;19936;-57
2022/08/22 03:39:42;;;;;;;;;;;;;;;16.77;75.07;101513.91;5029620;28;19953;-57
2022/08/22 03:42:27;;;;;;;;;;;;;;;16.78;74.92;101526.31;5033008;28;19913;-57
2022/08/22 03:45:12;;;;;;;;;;;;;;;16.78;74.80;101520.94;5034308;28;19983;-58
2022/08/22 03:47:43;;;;;;;;;;;;;;;16.75;74.87;101526.66;5034280;28;19927;-57
2022/08/22 03:50:11;;;;;;;;;;;;;;;16.73;75.28;101534.09;5032847;28;19960;-57
2022/08/22 03:53:06;;;;;;;;;;;;;;;16.71;75.20;101517.34;5036652;28;19970;-58
2022/08/22 03:55:41;;;;;;;;;;;;;;;16.71;75.04;101522.72;5037331;28;20345;-57
2022/08/22 03:58:09;;;;;;;;;;;;;;;16.70;75.12;101518.38;5028724;28;19923;-58
2022/08/22 04:00:37;;;;;;;;;;;;;;;16.69;75.62;101519.41;5034285;28;20499;-58
2022/08/22 04:03:21;;;;;;;;;;;;;;;16.72;75.45;101524.38;5035847;28;19940;-58
2022/08/22 04:05:56;;;;;;;;;;;;;;;16.73;75.68;101510.78;5035415;28;19913;-57
2022/08/22 04:08:23;;;;;;;;;;;;;;;16.75;75.45;101509.75;5035302;28;19909;-58
2022/08/22 04:11:01;;;;;;;;;;;;;;;16.73;75.50;101512.63;5036747;28;19912;-57
2022/08/22 04:13:30;;;;;;;;;;;;;;;16.74;75.03;101519.66;5041843;28;20262;-57
2022/08/22 04:16:07;;;;;;;;;;;;;;;16.75;75.45;101520.47;5035065;28;19921;-56
2022/08/22 04:18:49;;;;;;;;;;;;;;;16.75;75.45;101525.84;5032186;28;19975;-56
2022/08/22 04:21:20;;;;;;;;;;;;;;;16.74;75.56;101525.00;5031744;28;19916;-58
2022/08/22 04:23:48;;;;;;;;;;;;;;;16.72;75.74;101527.06;5036804;28;20079;-57
2022/08/22 04:26:21;;;;;;;;;;;;;;;16.68;75.75;101531.16;5033929;28;19913;-57
2022/08/22 04:28:57;;;;;;;;;;;;;;;16.66;75.41;101527.84;5035074;28;19913;-57
2022/08/22 04:31:28;;;;;;;;;;;;;;;16.64;75.38;101525.31;5034410;28;19985;-57
2022/08/22 04:33:57;;;;;;;;;;;;;;;16.60;75.47;101528.59;5037210;28;20620;-56
2022/08/22 04:36:33;;;;;;;;;;;;;;;16.54;75.72;101529.38;5027427;28;19919;-57
2022/08/22 04:39:01;;;;;;;;;;;;;;;16.47;75.73;101518.56;5035218;28;20368;-58
2022/08/22 04:41:41;;;;;;;;;;;;;;;16.42;75.73;101527.19;5033445;28;20023;-57
2022/08/22 04:44:21;;;;;;;;;;;;;;;16.42;75.60;101531.72;5029981;28;19942;-57
2022/08/22 04:47:01;;;;;;;;;;;;;;;16.41;75.66;101528.22;5032609;28;20403;-57
2022/08/22 04:49:50;;;;;;;;;;;;;;;16.40;75.42;101526.56;5036847;28;19908;-57
2022/08/22 04:52:34;;;;;;;;;;;;;;;16.38;75.94;101536.63;5001180;28;20330;-57
2022/08/22 04:55:08;;;;;;;;;;;;;;;16.35;76.48;101544.22;5025281;28;20485;-57
2022/08/22 04:57:44;;;;;;;;;;;;;;;16.33;76.22;101543.59;5028718;28;19913;-56
2022/08/22 05:00:10;;;;;;;;;;;;;;;16.34;76.44;101542.56;5024379;28;19937;-57
2022/08/22 05:02:38;;;;;;;;;;;;;;;16.35;76.65;101552.28;5022415;28;19913;-57
2022/08/22 05:05:08;;;;;;;;;;;;;;;16.34;76.55;101545.25;5019819;28;19947;-56
2022/08/22 05:07:38;;;;;;;;;;;;;;;16.32;76.73;101547.31;5025222;28;19935;-57
2022/08/22 05:10:23;;;;;;;;;;;;;;;16.31;76.65;101546.47;5023848;28;20403;-58
2022/08/22 05:12:52;;;;;;;;;;;;;;;16.31;76.60;101543.78;5032420;28;19913;-57
2022/08/22 05:15:20;;;;;;;;;;;;;;;16.33;76.81;101551.63;5032930;28;19920;-57
2022/08/22 05:17:46;;;;;;;;;;;;;;;16.35;76.85;101557.63;5033114;28;19963;-57
2022/08/22 05:20:14;;;;;;;;;;;;;;;16.37;76.77;101551.06;5035897;28;19920;-57
2022/08/22 05:22:42;;;;;;;;;;;;;;;16.42;76.58;101553.16;5022821;28;19916;-57
2022/08/22 05:25:10;;;;;;;;;;;;;;;16.47;76.50;101557.94;5015073;28;19944;-57
2022/08/22 05:27:39;;;;;;;;;;;;;;;16.51;76.79;101553.88;5016158;28;19913;-57
2022/08/22 05:30:08;;;;;;;;;;;;;;;16.54;76.84;101566.91;5025210;28;19955;-57
2022/08/22 05:32:40;;;;;;;;;;;;;;;16.57;76.76;101563.84;5032529;28;20043;-57
2022/08/22 05:35:07;;;;;;;;;;;;;;;16.59;76.83;101562.63;5037870;28;19912;-57
2022/08/22 05:37:43;;;;;;;;;;;;;;;16.63;76.92;101573.78;5031156;28;20295;-57
2022/08/22 05:40:13;;;;;;;;;;;;;;;16.66;76.71;101574.25;5028508;28;20055;-56
2022/08/22 05:42:38;;;;;;;;;;;;;;;16.71;76.74;101571.00;5025298;28;19928;-56
2022/08/22 05:45:05;;;;;;;;;;;;;;;16.76;77.01;101565.06;5026276;28;19913;-57
2022/08/22 05:47:42;;;;;;;;;;;;;;;16.79;77.08;101568.19;5024672;28;20377;-57
2022/08/22 05:50:13;;;;;;;;;;;;;;;16.84;77.06;101570.31;5027369;28;19912;-58
2022/08/22 05:52:45;;;;;;;;;;;;;;;16.88;77.18;101568.88;5026710;28;20016;-57
2022/08/22 05:55:16;;;;;;;;;;;;;;;16.92;77.24;101570.97;5023384;28;20384;-57
2022/08/22 05:57:46;;;;;;;;;;;;;;;16.95;77.63;101570.59;5020432;28;19913;-57
2022/08/22 06:00:13;;;;;;;;;;;;;;;16.99;77.47;101565.66;5015860;28;19944;-57
2022/08/22 06:02:39;;;;;;;;;;;;;;;17.01;77.95;101558.25;5019951;28;19917;-57
2022/08/22 06:05:05;;;;;;;;;;;;;;;17.04;77.94;101558.69;5021739;28;19936;-58
2022/08/22 06:07:36;;;;;;;;;;;;;;;17.08;78.12;101555.63;5024376;28;19970;-55
2022/08/22 06:10:04;;;;;;;;;;;;;;;17.11;77.92;101564.13;5020525;28;19917;-55
2022/08/22 06:12:38;;;;;;;;;;;;;;;17.15;78.06;101565.38;5017501;28;19921;-57
2022/08/22 06:15:09;;;;;;;;;;;;;;;17.19;78.24;101568.50;5019688;28;19917;-57
2022/08/22 06:17:38;;;;;;;;;;;;;;;17.24;78.22;101574.09;5021872;28;19913;-57
2022/08/22 06:20:08;;;;;;;;;;;;;;;17.27;78.19;101568.34;5024040;28;19928;-57
2022/08/22 06:22:37;;;;;;;;;;;;;;;17.30;78.23;101576.81;5026650;28;20364;-57
2022/08/22 06:25:23;;;;;;;;;;;;;;;17.34;78.30;101577.25;5021263;28;19913;-57
2022/08/22 06:27:49;;;;;;;;;;;;;;;17.40;78.23;101583.72;5018754;28;19971;-57
2022/08/22 06:30:15;;;;;;;;;;;;;;;17.43;78.07;101584.16;5029527;28;19913;-56
2022/08/22 06:32:44;;;;;;;;;;;;;;;17.47;78.24;101585.41;5024005;28;19975;-56
2022/08/22 06:35:20;;;;;;;;;;;;;;;17.52;78.13;101582.94;5034936;28;19959;-57
2022/08/22 06:37:47;;;;;;;;;;;;;;;17.57;78.47;101580.50;5027778;28;19917;-56
2022/08/22 06:40:14;;;;;;;;;;;;;;;17.62;78.47;101585.25;5031433;28;19975;-57
2022/08/22 06:42:41;;;;;;;;;;;;;;;17.68;78.63;101583.69;5032537;28;19921;-57
2022/08/22 06:45:08;;;;;;;;;;;;;;;17.74;78.23;101586.41;5035614;28;20838;-57
2022/08/22 06:47:39;;;;;;;;;;;;;;;17.79;78.64;101588.50;5039896;28;19919;-57
2022/08/22 06:50:08;;;;;;;;;;;;;;;17.83;78.57;101589.75;5040564;28;19909;-57
2022/08/22 06:52:45;;;;;;;;;;;;;;;17.89;78.61;101584.41;5030067;28;19917;-57
2022/08/22 06:55:11;;;;;;;;;;;;;;;17.94;78.26;101586.50;5033643;28;19912;-57
2022/08/22 06:57:48;;;;;;;;;;;;;;;17.99;78.26;101594.78;5030679;28;19936;-56
2022/08/22 07:00:14;;;;;;;;;;;;;;;18.04;78.35;101597.69;5036597;28;19920;-58
2022/08/22 07:02:41;;;;;;;;;;;;;;;18.09;78.07;101602.47;5031742;28;19946;-57
2022/08/22 07:05:27;;;;;;;;;;;;;;;18.14;78.15;101605.38;5032645;28;19912;-57
2022/08/22 07:07:53;;;;;;;;;;;;;;;18.19;77.81;101605.59;5035222;28;19987;-55
2022/08/22 07:10:20;;;;;;;;;;;;;;;18.25;77.81;101605.63;5034132;28;19931;-56
2022/08/22 07:12:47;;;;;;;;;;;;;;;18.29;77.83;101600.69;5037198;28;19913;-57
2022/08/22 07:15:22;;;;;;;;;;;;;;;18.35;77.56;101605.25;5030951;28;19947;-56
2022/08/22 07:17:48;;;;;;;;;;;;;;;18.39;77.76;101600.28;5026907;28;19914;-57
2022/08/22 07:20:22;;;;;;;;;;;;;;;18.43;77.64;101606.91;5037922;28;20010;-56
2022/08/22 07:23:11;;;;;;;;;;;;;;;18.48;77.61;101601.75;5022060;28;19913;-57
2022/08/22 07:26:03;;;;;;;;;;;;;;;18.51;77.42;101598.66;5030360;28;20312;-57
2022/08/22 07:28:41;;;;;;;;;;;;;;;18.56;77.40;101596.19;5026845;28;20067;-57
2022/08/22 07:31:14;;;;;;;;;;;;;;;18.60;77.72;101596.59;5033394;28;19959;-58
2022/08/22 07:33:46;;;;;;;;;;;;;;;18.62;77.77;101597.22;5033047;28;20031;-57
2022/08/22 07:36:19;;;;;;;;;;;;;;;18.63;77.76;101594.38;5030971;28;19966;-57
2022/08/22 07:38:56;;;;;;;;;;;;;;;18.65;77.70;101588.78;5033296;28;20282;-56
2022/08/22 07:41:23;;;;;;;;;;;;;;;18.69;78.02;101593.53;5037588;28;20057;-56
2022/08/22 07:43:54;;;;;;;;;;;;;;;18.73;78.14;101592.09;5031762;28;19913;-57
2022/08/22 07:46:25;;;;;;;;;;;;;;;18.79;77.92;101585.03;5035188;28;19912;-58
2022/08/22 07:48:56;;;;;;;;;;;;;;;18.80;77.86;101582.19;5029521;28;19913;-56
2022/08/22 07:51:33;;;;;;;;;;;;;;;18.83;77.69;101576.38;5030462;28;19913;-58
2022/08/22 07:54:07;;;;;;;;;;;;;;;18.85;77.59;101587.75;5035202;28;20384;-57
2022/08/22 07:56:36;;;;;;;;;;;;;;;18.86;77.49;101583.22;5032954;28;19917;-56
2022/08/22 07:59:07;;;;;;;;;;;;;;;18.90;77.71;101578.22;5029503;28;19917;-57
2022/08/22 08:01:32;;;;;;;;;;;;;;;18.95;77.35;101584.66;5032435;28;20292;-57
2022/08/22 08:04:02;;;;;;;;;;;;;;;19.03;77.55;101586.28;5041366;28;19917;-57
2022/08/22 08:06:28;;;;;;;;;;;;;;;19.06;77.65;101578.63;5031112;28;20432;-57
2022/08/22 08:08:54;;;;;;;;;;;;;;;19.11;77.60;101581.53;5030222;28;19940;-57
2022/08/22 08:11:21;;;;;;;;;;;;;;;19.15;77.31;101581.94;5038689;28;19975;-57
2022/08/22 08:13:50;;;;;;;;;;;;;;;19.15;77.01;101579.25;5035641;28;19913;-57
2022/08/22 08:16:18;;;;;;;;;;;;;;;19.18;77.15;101576.16;5025911;28;19967;-57
2022/08/22 08:18:45;;;;;;;;;;;;;;;19.23;77.10;101575.50;5029684;28;20026;-56
2022/08/22 08:21:25;;;;;;;;;;;;;;;19.29;76.85;101570.09;5033874;28;19908;-56
2022/08/22 08:23:52;;;;;;;;;;;;;;;19.32;76.97;101558.91;5037681;28;19909;-57
2022/08/22 08:26:22;;;;;;;;;;;;;;;19.43;76.74;101562.84;5033331;28;20301;-56
2022/08/22 08:28:49;;;;;;;;;;;;;;;19.48;76.75;101554.94;5035461;28;20067;-57
2022/08/22 08:31:25;;;;;;;;;;;;;;;19.56;76.65;101554.75;5029006;28;19924;-56
2022/08/22 08:33:52;;;;;;;;;;;;;;;19.66;76.09;101559.66;5038753;28;19913;-57
2022/08/22 08:36:29;;;;;;;;;;;;;;;19.78;76.05;101555.28;5040738;28;19909;-57
2022/08/22 08:38:56;;;;;;;;;;;;;;;19.92;76.04;101561.44;5041187;28;19917;-57
2022/08/22 08:41:40;;;;;;;;;;;;;;;20.09;76.07;101574.22;5036451;28;19913;-56
2022/08/22 08:44:21;;;;;;;;;;;;;;;20.25;75.42;101563.97;5029747;28;20361;-56
2022/08/22 08:47:07;;;;;;;;;;;;;;;20.43;75.73;101561.38;5033637;28;19916;-57
2022/08/22 08:49:36;;;;;;;;;;;;;;;20.63;75.22;101559.38;5039322;28;19916;-57
2022/08/22 08:52:08;;;;;;;;;;;;;;;20.79;74.81;101560.69;5029845;28;19909;-56
2022/08/22 08:54:33;;;;;;;;;;;;;;;;;;5030509;28;20376;-57
2022/08/22 08:57:01;;;;;;;;;;;;;;;21.06;74.27;101561.28;5029893;28;20444;-56
2022/08/22 08:59:47;;;;;;;;;;;;;;;21.19;73.68;101555.78;5037093;28;20433;-56
2022/08/22 09:02:33;;;;;;;;;;;;;;;21.34;73.11;101550.84;5028235;28;19916;-56
2022/08/22 09:05:04;;;;;;;;;;;;;;;21.47;72.41;101549.06;5006554;28;19963;-57
2022/08/22 09:07:46;;;;;;;;;;;;;;;21.58;72.16;101548.31;5023428;28;19931;-57
2022/08/22 09:10:12;;;;;;;;;;;;;;;21.67;71.44;101543.41;5032676;28;19913;-57
2022/08/22 09:12:40;;;;;;;;;;;;;;;21.76;71.04;101540.19;5043764;28;19923;-57
2022/08/22 09:15:05;;;;;;;;;;;;;;;21.86;71.14;101545.88;5026988;28;20008;-57
2022/08/22 09:17:49;;;;;;;;;;;;;;;21.93;70.35;101538.47;5031955;28;19999;-57
2022/08/22 09:20:18;;;;;;;;;;;;;;;22.05;70.13;101537.75;5029115;28;19917;-57
2022/08/22 09:22:59;;;;;;;;;;;;;;;22.13;68.71;101543.66;5038350;28;19914;-57
2022/08/22 09:25:33;;;;;;;;;;;;;;;22.20;68.83;101538.16;5027928;28;20004;-55
2022/08/22 09:28:09;;;;;;;;;;;;;;;22.26;68.21;101537.22;5031444;28;19917;-57
2022/08/22 09:30:44;;;;;;;;;;;;;;;22.33;67.95;101532.56;5022696;28;19913;-57
2022/08/22 09:33:12;;;;;;;;;;;;;;;22.44;67.50;101530.91;5036134;28;20250;-57
2022/08/22 09:35:41;;;;;;;;;;;;;;;22.48;66.60;101538.34;5041563;28;19943;-57
2022/08/22 09:38:18;;;;;;;;;;;;;;;22.54;65.44;101532.00;5038908;28;19909;-57
2022/08/22 09:40:43;;;;;;;;;;;;;;;22.64;65.56;101544.16;5025635;28;19948;-57
2022/08/22 09:43:12;;;;;;;;;;;;;;;22.69;64.41;101528.03;5040394;28;19939;-57
2022/08/22 09:46:10;;;;;;;;;;;;;;;22.69;63.58;101545.09;5038777;28;20391;-58
2022/08/22 09:48:47;;;;;;;;;;;;;;;22.71;62.75;101534.84;5001834;28;19991;-57
2022/08/22 09:51:21;;;;;;;;;;;;;;;22.71;61.41;101542.16;5031704;28;19958;-55
2022/08/22 09:53:52;;;;;;;;;;;;;;;22.74;60.95;101536.25;5025658;28;20003;-56
2022/08/22 09:56:25;;;;;;;;;;;;;;;22.80;61.14;101529.91;5033368;28;19913;-56
2022/08/22 09:59:00;;;;;;;;;;;;;;;22.82;61.39;101527.81;5030834;28;19921;-57
2022/08/22 10:01:31;;;;;;;;;;;;;;;22.89;61.83;101528.53;5031203;28;19909;-56
2022/08/22 10:04:06;;;;;;;;;;;;;;;22.91;61.60;101521.00;5028691;28;19952;-56
2022/08/22 10:06:51;;;;;;;;;;;;;;;22.99;60.62;101528.78;5036214;28;20318;-57
2022/08/22 10:09:25;;;;;;;;;;;;;;;23.09;61.13;101520.88;5026770;28;20003;-57
2022/08/22 10:12:05;;;;;;;;;;;;;;;23.18;60.70;101519.47;5025439;28;19923;-57
2022/08/22 10:14:49;;;;;;;;;;;;;;;23.33;60.12;101515.41;5032689;28;20288;-57
2022/08/22 10:17:19;;;;;;;;;;;;;;;23.36;59.51;101517.66;5031419;28;19951;-58
2022/08/22 10:19:46;;;;;;;;;;;;;;;23.31;59.09;101512.94;5027739;28;19982;-58
2022/08/22 10:22:30;;;;;;;;;;;;;;;23.40;58.85;101518.81;5027631;28;19913;-56
2022/08/22 10:25:06;;;;;;;;;;;;;;;23.47;58.41;101514.09;5025983;28;20480;-57
2022/08/22 10:27:55;;;;;;;;;;;;;;;23.49;57.80;101507.38;5024306;28;19913;-58
2022/08/22 10:30:26;;;;;;;;;;;;;;;23.63;58.53;101504.41;5029556;28;19917;-58
2022/08/22 10:33:03;;;;;;;;;;;;;;;23.69;57.05;101514.28;5022985;28;20044;-58
2022/08/22 10:35:59;;;;;;;;;;;;;;;23.65;56.55;101508.53;5028112;28;19913;-57
2022/08/22 10:38:35;;;;;;;;;;;;;;;23.63;56.56;101515.25;5015901;28;20010;-58
2022/08/22 10:41:01;;;;;;;;;;;;;;;23.57;56.29;101508.09;5029359;28;19932;-56
2022/08/22 10:43:44;;;;;;;;;;;;;;;23.53;56.18;101504.19;5028072;28;19917;-56
2022/08/22 10:46:20;;;;;;;;;;;;;;;23.58;56.67;101502.41;5014824;28;19925;-56
2022/08/22 10:48:47;;;;;;;;;;;;;;;23.65;56.22;101503.09;5022448;28;20411;-54
2022/08/22 10:51:23;;;;;;;;;;;;;;;23.71;55.61;101494.03;5026382;28;19999;-57
2022/08/22 10:53:54;;;;;;;;;;;;;;;23.80;54.47;101502.59;5027814;28;19913;-55
2022/08/22 10:56:26;;;;;;;;;;;;;;;23.95;54.84;101493.91;5023471;28;19916;-58
2022/08/22 10:58:54;;;;;;;;;;;;;;;24.07;53.46;101491.97;5029289;28;20364;-57
2022/08/22 11:01:22;;;;;;;;;;;;;;;24.18;52.88;101498.38;5030185;28;19970;-57
2022/08/22 11:04:03;;;;;;;;;;;;;;;24.35;52.26;101497.38;5023199;28;20450;-57
2022/08/22 11:06:52;;;;;;;;;;;;;;;24.57;52.49;101493.91;5025693;28;20284;-56
2022/08/22 11:09:35;;;;;;;;;;;;;;;24.77;50.88;101496.13;5030279;28;19959;-57
2022/08/22 11:12:01;;;;;;;;;;;;;;;24.94;49.79;101494.22;5024537;28;20492;-57
2022/08/22 11:14:48;;;;;;;;;;;;;;;24.94;49.90;101495.03;5033324;28;19912;-57
2022/08/22 11:17:32;;;;;;;;;;;;;;;25.02;49.80;101491.91;5024831;28;19917;-57
2022/08/22 11:20:16;;;;;;;;;;;;;;;25.22;49.39;101488.66;5024341;28;19946;-58
2022/08/22 11:23:07;;;;;;;;;;;;;;;25.41;48.30;101485.59;5029974;28;19962;-58
2022/08/22 11:25:44;;;;;;;;;;;;;;;25.43;48.31;101483.44;5032802;28;19920;-56
2022/08/22 11:28:28;;;;;;;;;;;;;;;25.52;47.61;101482.75;5031749;28;20381;-57
2022/08/22 11:31:03;;;;;;;;;;;;;;;25.51;48.27;101472.97;5021418;28;19914;-57
2022/08/22 11:33:46;;;;;;;;;;;;;;;25.53;47.77;101480.84;5026266;28;19920;-57
2022/08/22 11:36:31;;;;;;;;;;;;;;;25.52;47.70;101477.31;5033120;28;19913;-56
2022/08/22 11:38:56;;;;;;;;;;;;;;;25.49;47.56;101474.28;5024330;28;20020;-56
2022/08/22 11:41:43;;;;;;;;;;;;;;;25.48;47.32;101475.38;5025821;28;20011;-57
2022/08/22 11:44:14;;;;;;;;;;;;;;;25.40;46.84;101467.63;5033267;28;21513;-57
2022/08/22 11:46:43;;;;;;;;;;;;;;;25.32;47.44;101479.78;5030328;28;19913;-57
2022/08/22 11:49:23;;;;;;;;;;;;;;;25.25;47.49;101476.44;5030030;28;19917;-58
2022/08/22 11:51:56;;;;;;;;;;;;;;;25.24;47.87;101474.78;5035559;28;19912;-58
2022/08/22 11:54:27;;;;;;;;;;;;;;;25.20;48.12;101484.53;5033463;28;19915;-57
2022/08/22 11:56:59;;;;;;;;;;;;;;;25.14;47.91;101474.66;5030455;28;19943;-57
2022/08/22 11:59:31;;;;;;;;;;;;;;;25.10;47.82;101476.22;5031038;28;19913;-57
2022/08/22 12:02:00;;;;;;;;;;;;;;;25.00;46.56;101480.47;5034631;28;19908;-57
2022/08/22 12:04:36;;;;;;;;;;;;;;;24.91;46.62;101471.06;5030583;28;19996;-55
2022/08/22 12:07:20;;;;;;;;;;;;;;;24.93;47.79;101476.25;5030734;28;20368;-57
2022/08/22 12:09:50;;;;;;;;;;;;;;;24.97;47.20;101480.94;5028925;28;19909;-57
2022/08/22 12:12:30;;;;;;;;;;;;;;;24.99;47.51;101478.81;5041807;28;20355;-57
2022/08/22 12:14:58;;;;;;;;;;;;;;;25.05;47.21;101484.31;5024646;28;19919;-57
2022/08/22 12:17:41;;;;;;;;;;;;;;;25.07;47.24;101479.44;5031653;28;19909;-58
2022/08/22 12:20:07;;;;;;;;;;;;;;;25.09;47.41;101480.84;5030716;28;19917;-57
2022/08/22 12:23:00;;;;;;;;;;;;;;;25.02;46.25;101472.88;5038008;28;19935;-57
2022/08/22 12:25:28;;;;;;;;;;;;;;;25.02;47.08;101475.59;5029459;28;19992;-58
2022/08/22 12:28:10;;;;;;;;;;;;;;;25.02;45.38;101482.94;5031450;28;20004;-58
2022/08/22 12:30:35;;;;;;;;;;;;;;;25.00;45.21;101477.75;5039881;28;20408;-57
2022/08/22 12:33:13;;;;;;;;;;;;;;;25.02;45.39;101481.03;5032807;28;20543;-57
2022/08/22 12:35:41;;;;;;;;;;;;;;;25.09;46.33;101482.75;5027613;28;19951;-58
2022/08/22 12:38:27;;;;;;;;;;;;;;;25.15;46.76;101476.28;5028950;28;20004;-57
2022/08/22 12:41:15;;;;;;;;;;;;;;;25.22;46.85;101468.78;5031593;28;20331;-57
2022/08/22 12:43:50;;;;;;;;;;;;;;;25.20;46.44;101474.50;5037489;28;20000;-58
2022/08/22 12:46:35;;;;;;;;;;;;;;;25.22;46.08;101468.78;5029551;28;19920;-58
2022/08/22 12:49:06;;;;;;;;;;;;;;;25.21;46.05;101469.88;5025255;28;20015;-57
2022/08/22 12:51:32;;;;;;;;;;;;;;;25.19;46.33;101461.97;5034344;28;19998;-58
2022/08/22 12:54:15;;;;;;;;;;;;;;;25.19;46.32;101461.97;5038608;28;19956;-58
2022/08/22 12:56:40;;;;;;;;;;;;;;;25.18;45.63;101456.78;5032090;28;19917;-57
2022/08/22 12:59:26;;;;;;;;;;;;;;;25.13;45.52;101456.69;5027505;28;19920;-58
2022/08/22 13:01:54;;;;;;;;;;;;;;;25.09;45.41;101450.13;5033785;28;20408;-58
2022/08/22 13:04:24;;;;;;;;;;;;;;;25.04;45.91;101445.44;5034111;28;20340;-58
2022/08/22 13:06:53;;;;;;;;;;;;;;;25.02;46.27;101448.41;5034587;28;19912;-58
2022/08/22 13:09:25;;;;;;;;;;;;;;;24.99;46.20;101440.78;5031963;28;19944;-58
2022/08/22 13:11:51;;;;;;;;;;;;;;;25.00;46.12;101441.59;5039937;28;19915;-57
2022/08/22 13:14:22;;;;;;;;;;;;;;;24.99;45.91;101435.34;5031592;28;19931;-58